sensor_id;sensor_type;location;lat;lon;timestamp;P1;durP1;ratioP1;P2;durP2;ratioP2
13731;SDS011;6937;56.096;12.664;2023-01-28T00:02:02;2.60;;;1.80;;
13731;SDS011;6937;56.096;12.664;2023-01-28T00:04:27;5.43;;;1.90;;
13731;SDS011;6937;56.096;12.664;2023-01-28T00:06:53;3.33;;;1.93;;
13731;SDS011;6937;56.096;12.664;2023-01-28T00:09:18;2.50;;;1.90;;
13731;SDS011;6937;56.096;12.664;2023-01-28T00:11:44;4.87;;;1.70;;
13731;SDS011;6937;56.096;12.664;2023-01-28T00:14:10;3.53;;;1.90;;
13731;SDS011;6937;56.096;12.664;2023-01-28T00:16:36;2.80;;;1.80;;
13731;SDS011;6937;56.096;12.664;2023-01-28T00:19:02;3.00;;;1.73;;
13731;SDS011;6937;56.096;12.664;2023-01-28T00:21:27;2.63;;;1.70;;
13731;SDS011;6937;56.096;12.664;2023-01-28T00:23:53;3.27;;;1.33;;
13731;SDS011;6937;56.096;12.664;2023-01-28T00:26:20;1.87;;;1.13;;
13731;SDS011;6937;56.096;12.664;2023-01-28T00:28:46;1.77;;;1.40;;
13731;SDS011;6937;56.096;12.664;2023-01-28T00:31:16;2.13;;;1.20;;
13731;SDS011;6937;56.096;12.664;2023-01-28T00:33:43;2.67;;;1.40;;
13731;SDS011;6937;56.096;12.664;2023-01-28T00:36:10;3.75;;;1.50;;
13731;SDS011;6937;56.096;12.664;2023-01-28T00:38:36;1.77;;;1.27;;
13731;SDS011;6937;56.096;12.664;2023-01-28T00:41:06;3.17;;;1.47;;
13731;SDS011;6937;56.096;12.664;2023-01-28T00:43:35;1.97;;;1.30;;
13731;SDS011;6937;56.096;12.664;2023-01-28T00:46:02;2.37;;;1.37;;
13731;SDS011;6937;56.096;12.664;2023-01-28T00:48:28;2.47;;;1.40;;
13731;SDS011;6937;56.096;12.664;2023-01-28T00:50:53;3.77;;;1.53;;
13731;SDS011;6937;56.096;12.664;2023-01-28T00:53:19;2.80;;;1.40;;
13731;SDS011;6937;56.096;12.664;2023-01-28T00:55:44;1.97;;;1.10;;
13731;SDS011;6937;56.096;12.664;2023-01-28T00:58:09;4.37;;;1.20;;
13731;SDS011;6937;56.096;12.664;2023-01-28T01:00:35;1.90;;;1.07;;
13731;SDS011;6937;56.096;12.664;2023-01-28T01:03:00;1.67;;;1.20;;
13731;SDS011;6937;56.096;12.664;2023-01-28T01:05:26;1.87;;;1.17;;
13731;SDS011;6937;56.096;12.664;2023-01-28T01:07:53;2.73;;;1.23;;
13731;SDS011;6937;56.096;12.664;2023-01-28T01:10:19;2.17;;;1.13;;
13731;SDS011;6937;56.096;12.664;2023-01-28T01:12:45;2.07;;;1.03;;
13731;SDS011;6937;56.096;12.664;2023-01-28T01:15:11;2.47;;;1.03;;
13731;SDS011;6937;56.096;12.664;2023-01-28T01:17:37;2.43;;;1.10;;
13731;SDS011;6937;56.096;12.664;2023-01-28T01:20:05;2.53;;;1.00;;
13731;SDS011;6937;56.096;12.664;2023-01-28T01:22:34;2.60;;;1.10;;
13731;SDS011;6937;56.096;12.664;2023-01-28T01:25:00;1.93;;;1.30;;
13731;SDS011;6937;56.096;12.664;2023-01-28T01:27:25;1.20;;;0.90;;
13731;SDS011;6937;56.096;12.664;2023-01-28T01:29:51;1.50;;;1.23;;
13731;SDS011;6937;56.096;12.664;2023-01-28T01:32:16;2.87;;;1.53;;
13731;SDS011;6937;56.096;12.664;2023-01-28T01:34:42;1.40;;;1.10;;
13731;SDS011;6937;56.096;12.664;2023-01-28T01:37:08;2.30;;;1.50;;
13731;SDS011;6937;56.096;12.664;2023-01-28T01:39:34;3.53;;;1.50;;
13731;SDS011;6937;56.096;12.664;2023-01-28T01:42:00;2.47;;;1.60;;
13731;SDS011;6937;56.096;12.664;2023-01-28T01:47:19;3.13;;;2.03;;
13731;SDS011;6937;56.096;12.664;2023-01-28T01:49:50;5.57;;;2.13;;
13731;SDS011;6937;56.096;12.664;2023-01-28T01:52:17;3.42;;;2.40;;
13731;SDS011;6937;56.096;12.664;2023-01-28T01:54:47;5.68;;;2.50;;
13731;SDS011;6937;56.096;12.664;2023-01-28T01:57:20;3.67;;;2.50;;
13731;SDS011;6937;56.096;12.664;2023-01-28T01:59:49;5.82;;;3.05;;
13731;SDS011;6937;56.096;12.664;2023-01-28T02:02:14;4.95;;;3.05;;
13731;SDS011;6937;56.096;12.664;2023-01-28T02:04:41;3.47;;;2.60;;
13731;SDS011;6937;56.096;12.664;2023-01-28T02:07:09;5.35;;;3.05;;
13731;SDS011;6937;56.096;12.664;2023-01-28T02:09:36;4.77;;;2.80;;
13731;SDS011;6937;56.096;12.664;2023-01-28T02:12:12;4.20;;;2.77;;
13731;SDS011;6937;56.096;12.664;2023-01-28T02:14:46;5.23;;;3.03;;
13731;SDS011;6937;56.096;12.664;2023-01-28T02:17:15;3.60;;;2.70;;
13731;SDS011;6937;56.096;12.664;2023-01-28T02:19:46;6.25;;;2.72;;
13731;SDS011;6937;56.096;12.664;2023-01-28T02:24:56;2.80;;;2.20;;
13731;SDS011;6937;56.096;12.664;2023-01-28T02:30:39;2.77;;;2.10;;
13731;SDS011;6937;56.096;12.664;2023-01-28T02:33:13;3.93;;;2.17;;
13731;SDS011;6937;56.096;12.664;2023-01-28T02:35:54;4.30;;;2.30;;
13731;SDS011;6937;56.096;12.664;2023-01-28T02:38:22;5.33;;;1.90;;
13731;SDS011;6937;56.096;12.664;2023-01-28T02:40:53;3.80;;;1.97;;
13731;SDS011;6937;56.096;12.664;2023-01-28T02:43:37;5.43;;;2.23;;
13731;SDS011;6937;56.096;12.664;2023-01-28T02:49:11;2.30;;;1.90;;
13731;SDS011;6937;56.096;12.664;2023-01-28T02:57:06;4.13;;;2.03;;
13731;SDS011;6937;56.096;12.664;2023-01-28T03:04:46;4.37;;;1.70;;
13731;SDS011;6937;56.096;12.664;2023-01-28T03:07:19;3.17;;;1.63;;
13731;SDS011;6937;56.096;12.664;2023-01-28T03:09:47;3.07;;;2.00;;
13731;SDS011;6937;56.096;12.664;2023-01-28T03:12:17;2.27;;;1.80;;
13731;SDS011;6937;56.096;12.664;2023-01-28T03:15:23;5.03;;;2.00;;
13731;SDS011;6937;56.096;12.664;2023-01-28T03:18:17;4.60;;;2.30;;
13731;SDS011;6937;56.096;12.664;2023-01-28T03:21:11;3.53;;;2.17;;
13731;SDS011;6937;56.096;12.664;2023-01-28T03:24:11;5.13;;;2.60;;
13731;SDS011;6937;56.096;12.664;2023-01-28T03:27:45;3.83;;;2.77;;
13731;SDS011;6937;56.096;12.664;2023-01-28T03:30:13;6.67;;;3.57;;
13731;SDS011;6937;56.096;12.664;2023-01-28T03:33:02;6.87;;;3.37;;
13731;SDS011;6937;56.096;12.664;2023-01-28T03:35:47;6.00;;;3.80;;
13731;SDS011;6937;56.096;12.664;2023-01-28T03:38:32;5.10;;;3.57;;
13731;SDS011;6937;56.096;12.664;2023-01-28T03:41:06;7.87;;;3.93;;
13731;SDS011;6937;56.096;12.664;2023-01-28T03:43:33;6.23;;;4.30;;
13731;SDS011;6937;56.096;12.664;2023-01-28T03:45:59;8.13;;;4.20;;
13731;SDS011;6937;56.096;12.664;2023-01-28T03:48:25;6.33;;;4.23;;
13731;SDS011;6937;56.096;12.664;2023-01-28T03:50:53;6.87;;;4.20;;
13731;SDS011;6937;56.096;12.664;2023-01-28T03:53:20;5.72;;;4.35;;
13731;SDS011;6937;56.096;12.664;2023-01-28T03:55:47;8.43;;;4.68;;
13731;SDS011;6937;56.096;12.664;2023-01-28T03:58:14;6.80;;;4.30;;
13731;SDS011;6937;56.096;12.664;2023-01-28T04:00:41;7.22;;;4.65;;
13731;SDS011;6937;56.096;12.664;2023-01-28T04:03:10;5.45;;;4.00;;
13731;SDS011;6937;56.096;12.664;2023-01-28T04:05:43;7.10;;;4.77;;
13731;SDS011;6937;56.096;12.664;2023-01-28T04:08:26;5.67;;;4.37;;
13731;SDS011;6937;56.096;12.664;2023-01-28T04:10:51;8.53;;;5.17;;
13731;SDS011;6937;56.096;12.664;2023-01-28T04:13:17;6.40;;;4.40;;
13731;SDS011;6937;56.096;12.664;2023-01-28T04:15:42;6.67;;;4.30;;
13731;SDS011;6937;56.096;12.664;2023-01-28T04:18:09;6.07;;;4.67;;
13731;SDS011;6937;56.096;12.664;2023-01-28T04:20:35;6.23;;;5.03;;
13731;SDS011;6937;56.096;12.664;2023-01-28T04:23:01;7.53;;;5.17;;
13731;SDS011;6937;56.096;12.664;2023-01-28T04:25:27;9.82;;;5.68;;
13731;SDS011;6937;56.096;12.664;2023-01-28T04:27:52;7.85;;;5.65;;
13731;SDS011;6937;56.096;12.664;2023-01-28T04:30:17;7.93;;;5.72;;
13731;SDS011;6937;56.096;12.664;2023-01-28T04:32:44;8.97;;;6.10;;
13731;SDS011;6937;56.096;12.664;2023-01-28T04:35:10;7.37;;;5.73;;
13731;SDS011;6937;56.096;12.664;2023-01-28T04:37:36;12.33;;;7.07;;
13731;SDS011;6937;56.096;12.664;2023-01-28T04:40:01;8.27;;;6.03;;
13731;SDS011;6937;56.096;12.664;2023-01-28T04:42:26;9.70;;;6.97;;
13731;SDS011;6937;56.096;12.664;2023-01-28T04:44:52;8.07;;;6.40;;
13731;SDS011;6937;56.096;12.664;2023-01-28T04:47:17;9.80;;;6.67;;
13731;SDS011;6937;56.096;12.664;2023-01-28T04:49:44;9.53;;;6.50;;
13731;SDS011;6937;56.096;12.664;2023-01-28T04:52:09;9.30;;;6.70;;
13731;SDS011;6937;56.096;12.664;2023-01-28T04:54:35;9.03;;;6.90;;
13731;SDS011;6937;56.096;12.664;2023-01-28T04:57:00;9.52;;;6.65;;
13731;SDS011;6937;56.096;12.664;2023-01-28T04:59:25;9.20;;;6.90;;
13731;SDS011;6937;56.096;12.664;2023-01-28T05:01:51;11.98;;;6.72;;
13731;SDS011;6937;56.096;12.664;2023-01-28T05:04:16;9.17;;;7.20;;
13731;SDS011;6937;56.096;12.664;2023-01-28T05:06:42;10.10;;;7.70;;
13731;SDS011;6937;56.096;12.664;2023-01-28T05:09:07;11.07;;;7.77;;
13731;SDS011;6937;56.096;12.664;2023-01-28T05:11:33;12.47;;;8.33;;
13731;SDS011;6937;56.096;12.664;2023-01-28T05:13:58;13.50;;;9.97;;
13731;SDS011;6937;56.096;12.664;2023-01-28T05:16:23;13.20;;;9.77;;
13731;SDS011;6937;56.096;12.664;2023-01-28T05:18:49;12.73;;;9.37;;
13731;SDS011;6937;56.096;12.664;2023-01-28T05:21:15;14.23;;;9.50;;
13731;SDS011;6937;56.096;12.664;2023-01-28T05:23:41;12.00;;;9.37;;
13731;SDS011;6937;56.096;12.664;2023-01-28T05:26:07;12.43;;;8.30;;
13731;SDS011;6937;56.096;12.664;2023-01-28T05:28:33;14.20;;;9.68;;
13731;SDS011;6937;56.096;12.664;2023-01-28T05:31:02;12.07;;;8.30;;
13731;SDS011;6937;56.096;12.664;2023-01-28T05:33:29;11.57;;;8.73;;
13731;SDS011;6937;56.096;12.664;2023-01-28T05:35:54;11.50;;;8.60;;
13731;SDS011;6937;56.096;12.664;2023-01-28T05:38:19;12.17;;;8.70;;
13731;SDS011;6937;56.096;12.664;2023-01-28T05:40:46;11.93;;;8.67;;
13731;SDS011;6937;56.096;12.664;2023-01-28T05:43:11;13.40;;;8.63;;
13731;SDS011;6937;56.096;12.664;2023-01-28T05:45:37;11.50;;;8.63;;
13731;SDS011;6937;56.096;12.664;2023-01-28T05:48:02;11.80;;;8.80;;
13731;SDS011;6937;56.096;12.664;2023-01-28T05:50:28;13.27;;;9.13;;
13731;SDS011;6937;56.096;12.664;2023-01-28T05:52:53;14.17;;;9.10;;
13731;SDS011;6937;56.096;12.664;2023-01-28T05:55:18;13.90;;;9.23;;
13731;SDS011;6937;56.096;12.664;2023-01-28T05:57:44;12.17;;;9.00;;
13731;SDS011;6937;56.096;12.664;2023-01-28T06:00:09;13.87;;;10.20;;
13731;SDS011;6937;56.096;12.664;2023-01-28T06:02:35;14.57;;;9.43;;
13731;SDS011;6937;56.096;12.664;2023-01-28T06:05:00;14.53;;;9.40;;
13731;SDS011;6937;56.096;12.664;2023-01-28T06:07:26;13.80;;;9.80;;
13731;SDS011;6937;56.096;12.664;2023-01-28T06:09:51;14.50;;;9.93;;
13731;SDS011;6937;56.096;12.664;2023-01-28T06:12:16;14.70;;;9.88;;
13731;SDS011;6937;56.096;12.664;2023-01-28T06:14:42;15.98;;;9.93;;
13731;SDS011;6937;56.096;12.664;2023-01-28T06:17:07;14.97;;;10.20;;
13731;SDS011;6937;56.096;12.664;2023-01-28T06:19:33;12.60;;;9.83;;
13731;SDS011;6937;56.096;12.664;2023-01-28T06:21:58;13.33;;;9.23;;
13731;SDS011;6937;56.096;12.664;2023-01-28T06:24:23;12.03;;;8.90;;
13731;SDS011;6937;56.096;12.664;2023-01-28T06:26:49;14.32;;;9.15;;
13731;SDS011;6937;56.096;12.664;2023-01-28T06:29:14;11.80;;;9.23;;
13731;SDS011;6937;56.096;12.664;2023-01-28T06:31:39;13.03;;;8.40;;
13731;SDS011;6937;56.096;12.664;2023-01-28T06:34:05;12.30;;;8.93;;
13731;SDS011;6937;56.096;12.664;2023-01-28T06:36:30;11.63;;;7.87;;
13731;SDS011;6937;56.096;12.664;2023-01-28T06:38:55;12.90;;;8.68;;
13731;SDS011;6937;56.096;12.664;2023-01-28T06:41:21;12.47;;;8.27;;
13731;SDS011;6937;56.096;12.664;2023-01-28T06:43:46;10.70;;;8.20;;
13731;SDS011;6937;56.096;12.664;2023-01-28T06:46:12;11.77;;;8.07;;
13731;SDS011;6937;56.096;12.664;2023-01-28T06:48:37;12.90;;;7.97;;
13731;SDS011;6937;56.096;12.664;2023-01-28T06:51:03;12.40;;;8.90;;
13731;SDS011;6937;56.096;12.664;2023-01-28T06:53:28;14.33;;;9.07;;
13731;SDS011;6937;56.096;12.664;2023-01-28T06:55:54;12.87;;;8.80;;
13731;SDS011;6937;56.096;12.664;2023-01-28T06:58:19;13.70;;;9.40;;
13731;SDS011;6937;56.096;12.664;2023-01-28T07:00:44;14.17;;;9.90;;
13731;SDS011;6937;56.096;12.664;2023-01-28T07:03:10;13.50;;;9.80;;
13731;SDS011;6937;56.096;12.664;2023-01-28T07:05:35;13.33;;;9.70;;
13731;SDS011;6937;56.096;12.664;2023-01-28T07:08:00;12.35;;;9.32;;
13731;SDS011;6937;56.096;12.664;2023-01-28T07:10:26;16.60;;;9.60;;
13731;SDS011;6937;56.096;12.664;2023-01-28T07:12:52;12.48;;;9.15;;
13731;SDS011;6937;56.096;12.664;2023-01-28T07:15:17;12.77;;;8.77;;
13731;SDS011;6937;56.096;12.664;2023-01-28T07:17:43;13.17;;;9.13;;
13731;SDS011;6937;56.096;12.664;2023-01-28T07:20:10;12.97;;;9.60;;
13731;SDS011;6937;56.096;12.664;2023-01-28T07:22:41;11.80;;;9.07;;
13731;SDS011;6937;56.096;12.664;2023-01-28T07:25:09;13.83;;;9.53;;
13731;SDS011;6937;56.096;12.664;2023-01-28T07:27:35;13.50;;;9.87;;
13731;SDS011;6937;56.096;12.664;2023-01-28T07:30:01;12.77;;;9.43;;
13731;SDS011;6937;56.096;12.664;2023-01-28T07:32:26;12.93;;;9.13;;
13731;SDS011;6937;56.096;12.664;2023-01-28T07:34:53;16.13;;;9.80;;
13731;SDS011;6937;56.096;12.664;2023-01-28T07:37:18;14.03;;;9.73;;
13731;SDS011;6937;56.096;12.664;2023-01-28T07:39:44;14.17;;;9.23;;
13731;SDS011;6937;56.096;12.664;2023-01-28T07:42:09;13.03;;;9.47;;
13731;SDS011;6937;56.096;12.664;2023-01-28T07:44:35;15.70;;;10.57;;
13731;SDS011;6937;56.096;12.664;2023-01-28T07:47:01;15.43;;;9.63;;
13731;SDS011;6937;56.096;12.664;2023-01-28T07:49:28;15.13;;;9.90;;
13731;SDS011;6937;56.096;12.664;2023-01-28T07:51:53;15.13;;;10.50;;
13731;SDS011;6937;56.096;12.664;2023-01-28T07:54:19;15.27;;;9.65;;
13731;SDS011;6937;56.096;12.664;2023-01-28T07:56:44;15.80;;;10.00;;
13731;SDS011;6937;56.096;12.664;2023-01-28T07:59:09;13.55;;;9.85;;
13731;SDS011;6937;56.096;12.664;2023-01-28T08:01:35;14.30;;;10.10;;
13731;SDS011;6937;56.096;12.664;2023-01-28T08:04:00;14.80;;;10.47;;
13731;SDS011;6937;56.096;12.664;2023-01-28T08:06:27;15.30;;;10.63;;
13731;SDS011;6937;56.096;12.664;2023-01-28T08:08:52;17.95;;;11.02;;
13731;SDS011;6937;56.096;12.664;2023-01-28T08:11:18;14.70;;;10.50;;
13731;SDS011;6937;56.096;12.664;2023-01-28T08:13:43;13.00;;;9.80;;
13731;SDS011;6937;56.096;12.664;2023-01-28T08:16:09;13.55;;;10.73;;
13731;SDS011;6937;56.096;12.664;2023-01-28T08:18:34;17.67;;;11.18;;
13731;SDS011;6937;56.096;12.664;2023-01-28T08:20:59;14.75;;;11.07;;
13731;SDS011;6937;56.096;12.664;2023-01-28T08:23:25;15.93;;;10.25;;
13731;SDS011;6937;56.096;12.664;2023-01-28T08:25:51;13.43;;;9.95;;
13731;SDS011;6937;56.096;12.664;2023-01-28T08:28:17;14.70;;;9.63;;
13731;SDS011;6937;56.096;12.664;2023-01-28T08:30:43;15.93;;;9.77;;
13731;SDS011;6937;56.096;12.664;2023-01-28T08:33:10;15.03;;;9.60;;
13731;SDS011;6937;56.096;12.664;2023-01-28T08:35:37;16.95;;;10.05;;
13731;SDS011;6937;56.096;12.664;2023-01-28T08:38:03;15.17;;;10.10;;
13731;SDS011;6937;56.096;12.664;2023-01-28T08:40:29;15.50;;;10.37;;
13731;SDS011;6937;56.096;12.664;2023-01-28T08:42:55;15.00;;;10.30;;
13731;SDS011;6937;56.096;12.664;2023-01-28T08:45:22;16.97;;;10.70;;
13731;SDS011;6937;56.096;12.664;2023-01-28T08:47:56;16.13;;;10.38;;
13731;SDS011;6937;56.096;12.664;2023-01-28T08:50:24;15.20;;;10.63;;
13731;SDS011;6937;56.096;12.664;2023-01-28T08:52:58;14.20;;;9.70;;
13731;SDS011;6937;56.096;12.664;2023-01-28T08:55:28;16.17;;;10.47;;
13731;SDS011;6937;56.096;12.664;2023-01-28T08:57:54;17.33;;;10.80;;
13731;SDS011;6937;56.096;12.664;2023-01-28T09:00:19;15.18;;;11.02;;
13731;SDS011;6937;56.096;12.664;2023-01-28T09:02:46;15.03;;;10.47;;
13731;SDS011;6937;56.096;12.664;2023-01-28T09:05:14;17.17;;;11.07;;
13731;SDS011;6937;56.096;12.664;2023-01-28T09:07:40;18.13;;;11.00;;
13731;SDS011;6937;56.096;12.664;2023-01-28T09:10:05;19.10;;;10.77;;
13731;SDS011;6937;56.096;12.664;2023-01-28T09:12:31;13.57;;;10.30;;
13731;SDS011;6937;56.096;12.664;2023-01-28T09:14:56;17.47;;;10.77;;
13731;SDS011;6937;56.096;12.664;2023-01-28T09:17:22;17.60;;;10.57;;
13731;SDS011;6937;56.096;12.664;2023-01-28T09:19:48;14.73;;;10.00;;
13731;SDS011;6937;56.096;12.664;2023-01-28T09:22:14;14.38;;;10.18;;
13731;SDS011;6937;56.096;12.664;2023-01-28T09:24:39;14.40;;;10.20;;
13731;SDS011;6937;56.096;12.664;2023-01-28T09:27:05;16.50;;;10.77;;
13731;SDS011;6937;56.096;12.664;2023-01-28T09:29:32;16.47;;;11.37;;
13731;SDS011;6937;56.096;12.664;2023-01-28T09:31:58;15.68;;;10.30;;
13731;SDS011;6937;56.096;12.664;2023-01-28T09:34:23;14.50;;;10.35;;
13731;SDS011;6937;56.096;12.664;2023-01-28T09:36:49;14.57;;;10.23;;
13731;SDS011;6937;56.096;12.664;2023-01-28T09:39:14;16.48;;;10.30;;
13731;SDS011;6937;56.096;12.664;2023-01-28T09:47:04;17.92;;;10.82;;
13731;SDS011;6937;56.096;12.664;2023-01-28T09:49:38;16.17;;;9.90;;
13731;SDS011;6937;56.096;12.664;2023-01-28T09:52:11;15.52;;;9.73;;
13731;SDS011;6937;56.096;12.664;2023-01-28T09:54:41;14.93;;;10.10;;
13731;SDS011;6937;56.096;12.664;2023-01-28T09:57:16;13.20;;;9.77;;
13731;SDS011;6937;56.096;12.664;2023-01-28T09:59:47;14.73;;;9.67;;
13731;SDS011;6937;56.096;12.664;2023-01-28T10:07:54;13.63;;;9.32;;
13731;SDS011;6937;56.096;12.664;2023-01-28T10:10:49;15.47;;;9.60;;
13731;SDS011;6937;56.096;12.664;2023-01-28T10:13:32;16.10;;;9.15;;
13731;SDS011;6937;56.096;12.664;2023-01-28T10:18:40;13.87;;;9.17;;
13731;SDS011;6937;56.096;12.664;2023-01-28T10:21:32;15.40;;;8.87;;
13731;SDS011;6937;56.096;12.664;2023-01-28T10:24:09;12.57;;;8.52;;
13731;SDS011;6937;56.096;12.664;2023-01-28T10:26:57;13.23;;;8.53;;
13731;SDS011;6937;56.096;12.664;2023-01-28T10:29:24;15.10;;;8.70;;
13731;SDS011;6937;56.096;12.664;2023-01-28T10:31:54;12.15;;;8.27;;
13731;SDS011;6937;56.096;12.664;2023-01-28T10:34:26;13.65;;;9.80;;
13731;SDS011;6937;56.096;12.664;2023-01-28T10:36:52;12.43;;;8.90;;
13731;SDS011;6937;56.096;12.664;2023-01-28T10:39:19;12.40;;;9.60;;
13731;SDS011;6937;56.096;12.664;2023-01-28T10:41:46;15.73;;;9.33;;
13731;SDS011;6937;56.096;12.664;2023-01-28T10:44:26;12.40;;;8.80;;
13731;SDS011;6937;56.096;12.664;2023-01-28T10:46:56;13.68;;;9.57;;
13731;SDS011;6937;56.096;12.664;2023-01-28T10:49:27;14.38;;;9.20;;
13731;SDS011;6937;56.096;12.664;2023-01-28T10:51:54;14.15;;;9.02;;
13731;SDS011;6937;56.096;12.664;2023-01-28T10:54:21;14.45;;;8.88;;
13731;SDS011;6937;56.096;12.664;2023-01-28T10:56:56;12.90;;;8.83;;
13731;SDS011;6937;56.096;12.664;2023-01-28T10:59:28;14.95;;;9.30;;
13731;SDS011;6937;56.096;12.664;2023-01-28T11:01:56;14.40;;;9.13;;
13731;SDS011;6937;56.096;12.664;2023-01-28T11:04:28;13.73;;;9.52;;
13731;SDS011;6937;56.096;12.664;2023-01-28T11:09:25;13.68;;;9.32;;
13731;SDS011;6937;56.096;12.664;2023-01-28T11:11:52;13.00;;;9.73;;
13731;SDS011;6937;56.096;12.664;2023-01-28T11:14:18;12.90;;;9.32;;
13731;SDS011;6937;56.096;12.664;2023-01-28T11:16:45;12.48;;;9.10;;
13731;SDS011;6937;56.096;12.664;2023-01-28T11:19:11;15.38;;;9.60;;
13731;SDS011;6937;56.096;12.664;2023-01-28T11:21:36;13.15;;;9.77;;
13731;SDS011;6937;56.096;12.664;2023-01-28T11:24:06;13.45;;;8.95;;
13731;SDS011;6937;56.096;12.664;2023-01-28T11:26:42;15.60;;;9.53;;
13731;SDS011;6937;56.096;12.664;2023-01-28T11:32:14;13.07;;;9.02;;
13731;SDS011;6937;56.096;12.664;2023-01-28T11:34:47;12.55;;;9.35;;
13731;SDS011;6937;56.096;12.664;2023-01-28T11:37:16;13.30;;;8.97;;
13731;SDS011;6937;56.096;12.664;2023-01-28T11:39:46;12.52;;;9.45;;
13731;SDS011;6937;56.096;12.664;2023-01-28T11:42:16;13.80;;;9.50;;
13731;SDS011;6937;56.096;12.664;2023-01-28T11:44:44;11.55;;;9.32;;
13731;SDS011;6937;56.096;12.664;2023-01-28T11:47:29;13.33;;;9.57;;
13731;SDS011;6937;56.096;12.664;2023-01-28T11:50:17;12.73;;;9.18;;
13731;SDS011;6937;56.096;12.664;2023-01-28T11:52:57;14.32;;;9.75;;
13731;SDS011;6937;56.096;12.664;2023-01-28T12:03:35;13.93;;;9.50;;
13731;SDS011;6937;56.096;12.664;2023-01-28T12:06:15;12.68;;;8.65;;
13731;SDS011;6937;56.096;12.664;2023-01-28T12:08:57;11.63;;;8.98;;
13731;SDS011;6937;56.096;12.664;2023-01-28T12:17:35;13.20;;;9.30;;
13731;SDS011;6937;56.096;12.664;2023-01-28T12:30:59;14.10;;;8.98;;
13731;SDS011;6937;56.096;12.664;2023-01-28T12:42:12;15.70;;;9.50;;
13731;SDS011;6937;56.096;12.664;2023-01-28T12:45:01;12.50;;;8.38;;
13731;SDS011;6937;56.096;12.664;2023-01-28T12:47:36;13.48;;;9.05;;
13731;SDS011;6937;56.096;12.664;2023-01-28T12:50:10;12.02;;;8.85;;
13731;SDS011;6937;56.096;12.664;2023-01-28T12:52:43;14.38;;;8.15;;
13731;SDS011;6937;56.096;12.664;2023-01-28T12:55:17;13.10;;;7.80;;
13731;SDS011;6937;56.096;12.664;2023-01-28T12:57:49;15.88;;;7.88;;
13731;SDS011;6937;56.096;12.664;2023-01-28T13:03:09;14.73;;;7.47;;
13731;SDS011;6937;56.096;12.664;2023-01-28T13:05:59;10.70;;;7.28;;
13731;SDS011;6937;56.096;12.664;2023-01-28T13:08:30;11.98;;;7.70;;
13731;SDS011;6937;56.096;12.664;2023-01-28T13:10:56;12.27;;;7.07;;
13731;SDS011;6937;56.096;12.664;2023-01-28T13:13:31;10.55;;;6.80;;
13731;SDS011;6937;56.096;12.664;2023-01-28T13:15:59;10.93;;;6.72;;
13731;SDS011;6937;56.096;12.664;2023-01-28T13:18:30;11.45;;;7.30;;
13731;SDS011;6937;56.096;12.664;2023-01-28T13:21:15;14.63;;;7.55;;
13731;SDS011;6937;56.096;12.664;2023-01-28T13:24:04;10.23;;;7.03;;
13731;SDS011;6937;56.096;12.664;2023-01-28T13:26:43;10.82;;;6.85;;
13731;SDS011;6937;56.096;12.664;2023-01-28T13:31:50;14.15;;;7.25;;
13731;SDS011;6937;56.096;12.664;2023-01-28T13:36:58;12.67;;;8.00;;
13731;SDS011;6937;56.096;12.664;2023-01-28T13:39:27;14.60;;;8.30;;
13731;SDS011;6937;56.096;12.664;2023-01-28T13:42:06;14.43;;;8.80;;
13731;SDS011;6937;56.096;12.664;2023-01-28T13:44:32;15.00;;;8.02;;
13731;SDS011;6937;56.096;12.664;2023-01-28T13:49:43;14.55;;;8.93;;
13731;SDS011;6937;56.096;12.664;2023-01-28T13:52:14;16.20;;;9.20;;
13731;SDS011;6937;56.096;12.664;2023-01-28T14:03:43;16.08;;;9.88;;
13731;SDS011;6937;56.096;12.664;2023-01-28T14:17:46;14.20;;;9.10;;
13731;SDS011;6937;56.096;12.664;2023-01-28T14:23:04;14.25;;;9.57;;
13731;SDS011;6937;56.096;12.664;2023-01-28T14:25:44;16.50;;;9.07;;
13731;SDS011;6937;56.096;12.664;2023-01-28T14:31:15;12.18;;;8.65;;
13731;SDS011;6937;56.096;12.664;2023-01-28T14:33:46;14.07;;;8.10;;
13731;SDS011;6937;56.096;12.664;2023-01-28T14:36:12;12.03;;;8.20;;
13731;SDS011;6937;56.096;12.664;2023-01-28T14:38:38;12.50;;;7.88;;
13731;SDS011;6937;56.096;12.664;2023-01-28T14:41:06;11.60;;;7.50;;
13731;SDS011;6937;56.096;12.664;2023-01-28T14:43:33;11.07;;;7.10;;
13731;SDS011;6937;56.096;12.664;2023-01-28T14:46:09;11.98;;;7.97;;
13731;SDS011;6937;56.096;12.664;2023-01-28T14:48:49;11.48;;;6.85;;
13731;SDS011;6937;56.096;12.664;2023-01-28T14:51:52;11.85;;;7.25;;
13731;SDS011;6937;56.096;12.664;2023-01-28T14:57:24;10.77;;;7.80;;
13731;SDS011;6937;56.096;12.664;2023-01-28T15:00:01;12.43;;;8.25;;
13731;SDS011;6937;56.096;12.664;2023-01-28T15:02:32;13.38;;;7.85;;
13731;SDS011;6937;56.096;12.664;2023-01-28T15:05:07;13.27;;;8.00;;
13731;SDS011;6937;56.096;12.664;2023-01-28T15:07:35;13.07;;;8.23;;
13731;SDS011;6937;56.096;12.664;2023-01-28T15:10:05;13.98;;;8.27;;
13731;SDS011;6937;56.096;12.664;2023-01-28T15:12:36;12.48;;;8.70;;
13731;SDS011;6937;56.096;12.664;2023-01-28T15:17:48;13.53;;;8.43;;
13731;SDS011;6937;56.096;12.664;2023-01-28T15:20:15;11.70;;;7.43;;
13731;SDS011;6937;56.096;12.664;2023-01-28T15:22:43;11.20;;;7.88;;
13731;SDS011;6937;56.096;12.664;2023-01-28T15:25:15;12.10;;;8.73;;
13731;SDS011;6937;56.096;12.664;2023-01-28T15:27:52;13.32;;;8.82;;
13731;SDS011;6937;56.096;12.664;2023-01-28T15:30:27;13.13;;;9.20;;
13731;SDS011;6937;56.096;12.664;2023-01-28T15:32:58;13.48;;;8.85;;
13731;SDS011;6937;56.096;12.664;2023-01-28T15:35:35;13.73;;;9.00;;
13731;SDS011;6937;56.096;12.664;2023-01-28T15:38:00;19.00;;;10.57;;
13731;SDS011;6937;56.096;12.664;2023-01-28T15:40:26;17.00;;;10.35;;
13731;SDS011;6937;56.096;12.664;2023-01-28T15:42:54;14.23;;;9.80;;
13731;SDS011;6937;56.096;12.664;2023-01-28T15:45:22;18.13;;;10.65;;
13731;SDS011;6937;56.096;12.664;2023-01-28T15:47:50;16.55;;;11.65;;
13731;SDS011;6937;56.096;12.664;2023-01-28T15:50:18;22.67;;;13.80;;
13731;SDS011;6937;56.096;12.664;2023-01-28T15:52:46;20.42;;;11.43;;
13731;SDS011;6937;56.096;12.664;2023-01-28T15:57:51;16.40;;;10.45;;
13731;SDS011;6937;56.096;12.664;2023-01-28T16:00:20;21.17;;;10.60;;
13731;SDS011;6937;56.096;12.664;2023-01-28T16:02:50;20.73;;;10.25;;
13731;SDS011;6937;56.096;12.664;2023-01-28T16:05:25;17.88;;;9.05;;
13731;SDS011;6937;56.096;12.664;2023-01-28T16:08:01;17.65;;;9.70;;
13731;SDS011;6937;56.096;12.664;2023-01-28T16:10:28;15.75;;;8.13;;
13731;SDS011;6937;56.096;12.664;2023-01-28T16:12:57;17.75;;;8.85;;
13731;SDS011;6937;56.096;12.664;2023-01-28T16:15:24;16.77;;;8.90;;
13731;SDS011;6937;56.096;12.664;2023-01-28T16:17:50;16.00;;;7.68;;
13731;SDS011;6937;56.096;12.664;2023-01-28T16:20:34;12.40;;;7.57;;
13731;SDS011;6937;56.096;12.664;2023-01-28T16:23:00;21.35;;;8.60;;
13731;SDS011;6937;56.096;12.664;2023-01-28T16:25:34;16.17;;;8.27;;
13731;SDS011;6937;56.096;12.664;2023-01-28T16:28:10;15.63;;;8.02;;
13731;SDS011;6937;56.096;12.664;2023-01-28T16:30:41;18.60;;;8.80;;
13731;SDS011;6937;56.096;12.664;2023-01-28T16:33:15;15.57;;;8.38;;
13731;SDS011;6937;56.096;12.664;2023-01-28T16:35:43;18.25;;;8.82;;
13731;SDS011;6937;56.096;12.664;2023-01-28T16:38:08;20.10;;;9.55;;
13731;SDS011;6937;56.096;12.664;2023-01-28T16:40:33;19.45;;;9.45;;
13731;SDS011;6937;56.096;12.664;2023-01-28T16:43:02;16.73;;;8.95;;
13731;SDS011;6937;56.096;12.664;2023-01-28T16:45:27;17.58;;;9.38;;
13731;SDS011;6937;56.096;12.664;2023-01-28T16:47:53;19.17;;;10.10;;
13731;SDS011;6937;56.096;12.664;2023-01-28T16:50:18;20.50;;;9.80;;